sensor_id;sensor_type;location;lat;lon;timestamp;pressure;altitude;pressure_sealevel;temperature;humidity
45113;BME280;30873;53.908;27.576;2023-04-25T00:01:53;1008.9;;;14.9;47.9
45113;BME280;30873;53.908;27.576;2023-04-25T00:06:29;1008.9;;;14.9;48.2
45113;BME280;30873;53.908;27.576;2023-04-25T00:11:55;1008.8;;;14.8;48.3
45113;BME280;30873;53.908;27.576;2023-04-25T00:16:43;1008.8;;;14.8;48.5
45113;BME280;30873;53.908;27.576;2023-04-25T00:21:27;1008.8;;;14.8;48.8
45113;BME280;30873;53.908;27.576;2023-04-25T00:26:43;1008.7;;;14.7;49
45113;BME280;30873;53.908;27.576;2023-04-25T00:31:05;1008.7;;;14.7;49
45113;BME280;30873;53.908;27.576;2023-04-25T00:36:15;1008.6;;;14.7;49.2
45113;BME280;30873;53.908;27.576;2023-04-25T00:41:43;1008.6;;;14.6;49.5
45113;BME280;30873;53.908;27.576;2023-04-25T00:46:55;1008.6;;;14.6;49.6
45113;BME280;30873;53.908;27.576;2023-04-25T00:51:27;1008.6;;;14.5;50
45113;BME280;30873;53.908;27.576;2023-04-25T00:56:44;1008.6;;;14.5;50.3
45113;BME280;30873;53.908;27.576;2023-04-25T01:01:05;1008.6;;;14.4;50.7
45113;BME280;30873;53.908;27.576;2023-04-25T01:06:39;1008.6;;;14.5;50.8
45113;BME280;30873;53.908;27.576;2023-04-25T01:11:31;1008.6;;;14.4;51.1
45113;BME280;30873;53.908;27.576;2023-04-25T01:16:17;1008.6;;;14.4;51.1
45113;BME280;30873;53.908;27.576;2023-04-25T01:21:43;1008.5;;;14.4;51.6
45113;BME280;30873;53.908;27.576;2023-04-25T01:26:25;1008.5;;;14.4;51.6
45113;BME280;30873;53.908;27.576;2023-04-25T01:31:43;1008.5;;;14.2;52.1
45113;BME280;30873;53.908;27.576;2023-04-25T01:36:55;1008.5;;;14.1;52.9
45113;BME280;30873;53.908;27.576;2023-04-25T01:41:53;1008.5;;;14.1;53.3
45113;BME280;30873;53.908;27.576;2023-04-25T01:46:05;1008.4;;;14.1;53.6
45113;BME280;30873;53.908;27.576;2023-04-25T01:51:43;1008.4;;;14;53.6
45113;BME280;30873;53.908;27.576;2023-04-25T01:56:56;1008.4;;;13.9;54.2
45113;BME280;30873;53.908;27.576;2023-04-25T02:01:17;1008.4;;;13.8;54.6
45113;BME280;30873;53.908;27.576;2023-04-25T02:06:31;1008.3;;;13.8;55
45113;BME280;30873;53.908;27.576;2023-04-25T02:11:17;1008.3;;;13.7;55.2
45113;BME280;30873;53.908;27.576;2023-04-25T02:16:39;1008.2;;;13.7;55.6
45113;BME280;30873;53.908;27.576;2023-04-25T02:21:55;1008.2;;;13.7;55.9
45113;BME280;30873;53.908;27.576;2023-04-25T02:26:27;1008.2;;;13.7;56
45113;BME280;30873;53.908;27.576;2023-04-25T02:31:55;1008.1;;;13.7;55.9
45113;BME280;30873;53.908;27.576;2023-04-25T02:36:43;1008.1;;;13.7;55.9
45113;BME280;30873;53.908;27.576;2023-04-25T02:41:21;1008;;;13.7;56
45113;BME280;30873;53.908;27.576;2023-04-25T02:46:27;1008;;;13.7;56
45113;BME280;30873;53.908;27.576;2023-04-25T02:51:33;1008;;;13.7;56.7
45113;BME280;30873;53.908;27.576;2023-04-25T02:56:17;1007.9;;;13.7;57.5
45113;BME280;30873;53.908;27.576;2023-04-25T03:01:39;1007.9;;;13.7;57.8
45113;BME280;30873;53.908;27.576;2023-04-25T03:06:55;1007.9;;;13.7;57.6
45113;BME280;30873;53.908;27.576;2023-04-25T03:11:05;1007.9;;;13.7;58.2
45113;BME280;30873;53.908;27.576;2023-04-25T03:16:55;1007.9;;;13.7;59.2
45113;BME280;30873;53.908;27.576;2023-04-25T03:21:05;1007.9;;;13.8;58.2
45113;BME280;30873;53.908;27.576;2023-04-25T03:26:43;1008;;;13.9;58
45113;BME280;30873;53.908;27.576;2023-04-25T03:31:43;1007.9;;;14;57.5
45113;BME280;30873;53.908;27.576;2023-04-25T03:36:27;1007.9;;;14;57.8
45113;BME280;30873;53.908;27.576;2023-04-25T03:41:15;1007.9;;;14.1;57.7
45113;BME280;30873;53.908;27.576;2023-04-25T03:46:43;1007.9;;;14.1;57.5
45113;BME280;30873;53.908;27.576;2023-04-25T03:51:55;1007.9;;;14.2;57.3
45113;BME280;30873;53.908;27.576;2023-04-25T03:56:41;1007.9;;;14.2;57.5
45113;BME280;30873;53.908;27.576;2023-04-25T04:01:31;1007.9;;;14.3;57.4
45113;BME280;30873;53.908;27.576;2023-04-25T04:06:53;1007.9;;;14.3;57.1
45113;BME280;30873;53.908;27.576;2023-04-25T04:11:55;1008;;;14.4;56.7
45113;BME280;30873;53.908;27.576;2023-04-25T04:16:19;1008;;;14.5;56.3
45113;BME280;30873;53.908;27.576;2023-04-25T04:21:05;1007.9;;;14.5;56.3
45113;BME280;30873;53.908;27.576;2023-04-25T04:26:55;1007.9;;;14.6;56.3
45113;BME280;30873;53.908;27.576;2023-04-25T04:31:43;1007.8;;;14.7;55.8
45113;BME280;30873;53.908;27.576;2023-04-25T04:36:15;1007.8;;;14.8;55.6
45113;BME280;30873;53.908;27.576;2023-04-25T04:41:05;1007.9;;;14.9;55.4
45113;BME280;30873;53.908;27.576;2023-04-25T04:46:55;1007.9;;;15;55.1
45113;BME280;30873;53.908;27.576;2023-04-25T04:51:05;1007.8;;;15.2;54.6
45113;BME280;30873;53.908;27.576;2023-04-25T04:56:15;1007.8;;;15.3;54.3
45113;BME280;30873;53.908;27.576;2023-04-25T05:01:55;1007.8;;;15.5;53.9
45113;BME280;30873;53.908;27.576;2023-04-25T05:06:29;1007.8;;;15.7;53.4
45113;BME280;30873;53.908;27.576;2023-04-25T05:11:17;1007.9;;;15.9;52.9
45113;BME280;30873;53.908;27.576;2023-04-25T05:16:39;1007.8;;;16.1;52.4
45113;BME280;30873;53.908;27.576;2023-04-25T05:21:41;1007.9;;;16.6;51.3
45113;BME280;30873;53.908;27.576;2023-04-25T05:26:55;1007.9;;;17.2;50.2
45113;BME280;30873;53.908;27.576;2023-04-25T05:31:15;1007.9;;;17.4;49.7
45113;BME280;30873;53.908;27.576;2023-04-25T05:36:55;1008;;;17.3;50.2
45113;BME280;30873;53.908;27.576;2023-04-25T05:41:43;1008.1;;;16.8;51.7
45113;BME280;30873;53.908;27.576;2023-04-25T05:46:43;1008.1;;;16.5;53.2
45113;BME280;30873;53.908;27.576;2023-04-25T05:51:55;1008.1;;;16.2;54.9
45113;BME280;30873;53.908;27.576;2023-04-25T05:56:43;1008.1;;;16;57.4
45113;BME280;30873;53.908;27.576;2023-04-25T06:01:39;1008.1;;;15.9;59.9
45113;BME280;30873;53.908;27.576;2023-04-25T06:06:39;1008;;;15.8;64.2
45113;BME280;30873;53.908;27.576;2023-04-25T06:11:55;1008;;;15.8;69.8
45113;BME280;30873;53.908;27.576;2023-04-25T06:16:31;1008.1;;;15.7;74.2
45113;BME280;30873;53.908;27.576;2023-04-25T06:21:55;1008;;;15.7;80
45113;BME280;30873;53.908;27.576;2023-04-25T06:26:05;1007.8;;;16;83.2
45113;BME280;30873;53.908;27.576;2023-04-25T06:31:05;1007.7;;;16.4;81.6
45113;BME280;30873;53.908;27.576;2023-04-25T06:36:43;1007.7;;;17;78.5
45113;BME280;30873;53.908;27.576;2023-04-25T06:41:55;1007.7;;;17.5;77.8
45113;BME280;30873;53.908;27.576;2023-04-25T06:46:17;1007.7;;;17.4;79.9
45113;BME280;30873;53.908;27.576;2023-04-25T06:51:41;1007.6;;;17.4;78.3
45113;BME280;30873;53.908;27.576;2023-04-25T06:56:55;1007.5;;;17.6;78.3
45113;BME280;30873;53.908;27.576;2023-04-25T07:01:05;1007.5;;;18.1;75.1
45113;BME280;30873;53.908;27.576;2023-04-25T07:06:31;1007.4;;;18.2;73.7
45113;BME280;30873;53.908;27.576;2023-04-25T07:11:55;1007.5;;;18.1;73.8
45113;BME280;30873;53.908;27.576;2023-04-25T07:16:57;1007.5;;;18.2;73.4
45113;BME280;30873;53.908;27.576;2023-04-25T07:21:19;1007.5;;;18.2;74.1
45113;BME280;30873;53.908;27.576;2023-04-25T07:26:06;1007.5;;;17.8;75.7
45113;BME280;30873;53.908;27.576;2023-04-25T07:31:57;1007.5;;;17.6;77
45113;BME280;30873;53.908;27.576;2023-04-25T07:36:45;1007.6;;;17.5;79.5
45113;BME280;30873;53.908;27.576;2023-04-25T07:41:05;1007.8;;;17.3;79.1
45113;BME280;30873;53.908;27.576;2023-04-25T07:46:41;1007.8;;;16.9;81.7
45113;BME280;30873;53.908;27.576;2023-04-25T07:51:45;1007.5;;;16.6;87.3
45113;BME280;30873;53.908;27.576;2023-04-25T07:56:17;1007.3;;;16.8;89.1
45113;BME280;30873;53.908;27.576;2023-04-25T08:01:27;1007.1;;;17;87.8
45113;BME280;30873;53.908;27.576;2023-04-25T08:06:57;1007.1;;;17.2;87.9
45113;BME280;30873;53.908;27.576;2023-04-25T08:11:05;1007.2;;;17.5;83.1
45113;BME280;30873;53.908;27.576;2023-04-25T08:16:31;1007.2;;;17.9;80.9
45113;BME280;30873;53.908;27.576;2023-04-25T08:21:39;1007.2;;;18.4;78.3
45113;BME280;30873;53.908;27.576;2023-04-25T08:26:05;1007.1;;;20;68.3
45113;BME280;30873;53.908;27.576;2023-04-25T08:31:43;1007.1;;;20.9;61.8
45113;BME280;30873;53.908;27.576;2023-04-25T08:36:29;1007;;;21.4;57.1
45113;BME280;30873;53.908;27.576;2023-04-25T08:41:57;1007.1;;;21.7;54.4
45113;BME280;30873;53.908;27.576;2023-04-25T08:46:57;1007.1;;;21.5;53.5
45113;BME280;30873;53.908;27.576;2023-04-25T08:51:46;1007.2;;;21.4;52.7
45113;BME280;30873;53.908;27.576;2023-04-25T08:56:27;1007.2;;;21.3;52.1
45113;BME280;30873;53.908;27.576;2023-04-25T09:01:57;1007.2;;;21.7;51.2
45113;BME280;30873;53.908;27.576;2023-04-25T09:06:05;1007.1;;;22.4;49.6
45113;BME280;30873;53.908;27.576;2023-04-25T09:11:39;1007.1;;;22.5;47
45113;BME280;30873;53.908;27.576;2023-04-25T09:16:05;1007.1;;;22.8;45.5
45113;BME280;30873;53.908;27.576;2023-04-25T09:21:17;1007;;;23;44.9
45113;BME280;30873;53.908;27.576;2023-04-25T09:26:41;1007;;;23.7;44.2
45113;BME280;30873;53.908;27.576;2023-04-25T09:31:41;1006.9;;;25.6;41.1
45113;BME280;30873;53.908;27.576;2023-04-25T09:36:55;1006.9;;;26.8;38.7
45113;BME280;30873;53.908;27.576;2023-04-25T09:41:43;1006.9;;;26.9;37.9
45113;BME280;30873;53.908;27.576;2023-04-25T09:46:07;1006.8;;;27.2;36.7
45113;BME280;30873;53.908;27.576;2023-04-25T09:51:15;1006.8;;;27.6;35.6
45113;BME280;30873;53.908;27.576;2023-04-25T09:56:43;1006.8;;;28.5;34.7
45113;BME280;30873;53.908;27.576;2023-04-25T10:01:57;1006.8;;;29.2;32.8
45113;BME280;30873;53.908;27.576;2023-04-25T10:06:07;1006.7;;;28.5;33.5
45113;BME280;30873;53.908;27.576;2023-04-25T10:11:31;1006.6;;;29.6;31
45113;BME280;30873;53.908;27.576;2023-04-25T10:16:55;1006.6;;;29.9;30
45113;BME280;30873;53.908;27.576;2023-04-25T10:22:00;1006.5;;;30.2;28.7
45113;BME280;30873;53.908;27.576;2023-04-25T10:26:05;1006.5;;;29.5;29.7
45113;BME280;30873;53.908;27.576;2023-04-25T10:31:17;1006.5;;;28.4;31.1
45113;BME280;30873;53.908;27.576;2023-04-25T10:36:57;1006.5;;;27.6;32.4
45113;BME280;30873;53.908;27.576;2023-04-25T10:41:58;1006.5;;;27.2;33.7
45113;BME280;30873;53.908;27.576;2023-04-25T10:46:16;1006.5;;;26.9;34.1
45113;BME280;30873;53.908;27.576;2023-04-25T10:51:18;1006.4;;;28.6;31.9
45113;BME280;30873;53.908;27.576;2023-04-25T10:56:58;1006.3;;;28.7;30.9
45113;BME280;30873;53.908;27.576;2023-04-25T11:01:06;1006.3;;;29;30.1
45113;BME280;30873;53.908;27.576;2023-04-25T11:06:06;1006.2;;;29.9;28.9
45113;BME280;30873;53.908;27.576;2023-04-25T11:11:28;1006.1;;;30.1;27.8
45113;BME280;30873;53.908;27.576;2023-04-25T11:16:06;1006.1;;;29.2;28.6
45113;BME280;30873;53.908;27.576;2023-04-25T11:21:05;1006.1;;;29.5;28
45113;BME280;30873;53.908;27.576;2023-04-25T11:26:41;1006;;;28.4;28.6
45113;BME280;30873;53.908;27.576;2023-04-25T11:31:28;1005.9;;;30.4;26.9
45113;BME280;30873;53.908;27.576;2023-04-25T11:36:31;1005.8;;;32.3;24.8
45113;BME280;30873;53.908;27.576;2023-04-25T11:41:41;1005.7;;;33.4;23.5
45113;BME280;30873;53.908;27.576;2023-04-25T11:46:57;1005.6;;;33.9;23
45113;BME280;30873;53.908;27.576;2023-04-25T11:51:44;1005.7;;;33.8;22.9
45113;BME280;30873;53.908;27.576;2023-04-25T11:56:55;1005.9;;;30.3;25.4
45113;BME280;30873;53.908;27.576;2023-04-25T12:01:28;1006.1;;;26.1;29.2
45113;BME280;30873;53.908;27.576;2023-04-25T12:06:56;1006.3;;;23.8;33.7
45113;BME280;30873;53.908;27.576;2023-04-25T12:11:06;1006.3;;;22.4;37.9
45113;BME280;30873;53.908;27.576;2023-04-25T12:16:40;1006.2;;;21.3;44.4
45113;BME280;30873;53.908;27.576;2023-04-25T12:21:29;1006.2;;;21;50.8
45113;BME280;30873;53.908;27.576;2023-04-25T12:26:05;1006.2;;;21.1;51.4
45113;BME280;30873;53.908;27.576;2023-04-25T12:31:44;1005.9;;;21.2;52.4
45113;BME280;30873;53.908;27.576;2023-04-25T12:36:27;1005.9;;;22.1;48.9
45113;BME280;30873;53.908;27.576;2023-04-25T12:41:27;1005.8;;;24.9;43.2
45113;BME280;30873;53.908;27.576;2023-04-25T12:46:56;1005.6;;;28.9;35.9
45113;BME280;30873;53.908;27.576;2023-04-25T12:51:55;1005.5;;;31.8;31
45113;BME280;30873;53.908;27.576;2023-04-25T12:56:06;1005.4;;;33.8;27.6
45113;BME280;30873;53.908;27.576;2023-04-25T13:01:44;1005.3;;;35.7;25.1
45113;BME280;30873;53.908;27.576;2023-04-25T13:06:44;1005.3;;;37;23.3
45113;BME280;30873;53.908;27.576;2023-04-25T13:11:06;1005.1;;;37.8;21.3
45113;BME280;30873;53.908;27.576;2023-04-25T13:16:17;1005;;;37.9;20.1
45113;BME280;30873;53.908;27.576;2023-04-25T13:21:19;1005;;;37.8;19.8
45113;BME280;30873;53.908;27.576;2023-04-25T13:26:56;1004.9;;;37.7;19.5
45113;BME280;30873;53.908;27.576;2023-04-25T13:31:56;1004.8;;;37;19.6
45113;BME280;30873;53.908;27.576;2023-04-25T13:36:28;1004.7;;;35.9;19.8
45113;BME280;30873;53.908;27.576;2023-04-25T13:41:56;1004.6;;;36.1;19.9
45113;BME280;30873;53.908;27.576;2023-04-25T13:46:44;1004.5;;;37.4;18.9
45113;BME280;30873;53.908;27.576;2023-04-25T13:51:06;1004.6;;;37.1;19.2
45113;BME280;30873;53.908;27.576;2023-04-25T13:56:28;1004.6;;;36.6;19.6
45113;BME280;30873;53.908;27.576;2023-04-25T14:01:56;1004.6;;;35.3;20.8
45113;BME280;30873;53.908;27.576;2023-04-25T14:06:06;1004.6;;;36.3;20.2
45113;BME280;30873;53.908;27.576;2023-04-25T14:11:26;1004.6;;;32.8;23
45113;BME280;30873;53.908;27.576;2023-04-25T14:16:56;1004.6;;;29.3;26.2
45113;BME280;30873;53.908;27.576;2023-04-25T14:21:32;1004.6;;;27.4;28.2
45113;BME280;30873;53.908;27.576;2023-04-25T14:26:30;1004.5;;;26.9;28.7
45113;BME280;30873;53.908;27.576;2023-04-25T14:31:38;1004.5;;;26.2;29.4
45113;BME280;30873;53.908;27.576;2023-04-25T14:36:18;1004.5;;;25.5;30.2
45113;BME280;30873;53.908;27.576;2023-04-25T14:41:44;1004.4;;;24.6;31.4
45113;BME280;30873;53.908;27.576;2023-04-25T14:46:16;1004.4;;;24.1;32
45113;BME280;30873;53.908;27.576;2023-04-25T14:51:56;1004.4;;;23.8;32.5
45113;BME280;30873;53.908;27.576;2023-04-25T14:56:44;1004.4;;;23.6;33
45113;BME280;30873;53.908;27.576;2023-04-25T15:01:54;1004.4;;;23.3;33.6
45113;BME280;30873;53.908;27.576;2023-04-25T15:06:28;1004.3;;;23.1;34.2
45113;BME280;30873;53.908;27.576;2023-04-25T15:11:44;1004.3;;;22.8;34.4
45113;BME280;30873;53.908;27.576;2023-04-25T15:16:44;1004.3;;;22.6;35.2
45113;BME280;30873;53.908;27.576;2023-04-25T15:21:42;1004.4;;;22.6;35.9
45113;BME280;30873;53.908;27.576;2023-04-25T15:26:32;1004.3;;;22.5;36.2
45113;BME280;30873;53.908;27.576;2023-04-25T15:31:06;1004.4;;;22.2;37.1
45113;BME280;30873;53.908;27.576;2023-04-25T15:36:58;1004.5;;;22.1;38.4
45113;BME280;30873;53.908;27.576;2023-04-25T15:41:16;1004.4;;;21.9;40.4
45113;BME280;30873;53.908;27.576;2023-04-25T15:46:06;1004.4;;;21.9;41.6
45113;BME280;30873;53.908;27.576;2023-04-25T15:51:58;1004.3;;;22.2;40.6
45113;BME280;30873;53.908;27.576;2023-04-25T15:56:58;1004.2;;;22.5;40.2
45113;BME280;30873;53.908;27.576;2023-04-25T16:01:16;1004.1;;;22.7;41.8
45113;BME280;30873;53.908;27.576;2023-04-25T16:06:44;1004;;;22.9;41.9
45113;BME280;30873;53.908;27.576;2023-04-25T16:11:46;1004.1;;;22.9;40.8
45113;BME280;30873;53.908;27.576;2023-04-25T16:16:06;1004.1;;;22.8;40.1
45113;BME280;30873;53.908;27.576;2023-04-25T16:21:06;1004.1;;;22.5;39.6
45113;BME280;30873;53.908;27.576;2023-04-25T16:26:40;1004;;;22.5;39.7
45113;BME280;30873;53.908;27.576;2023-04-25T16:31:54;1004.1;;;22.3;40.3
45113;BME280;30873;53.908;27.576;2023-04-25T16:36:56;1004.2;;;21.9;41.6
45113;BME280;30873;53.908;27.576;2023-04-25T16:41:16;1004.2;;;20.9;45.1
45113;BME280;30873;53.908;27.576;2023-04-25T16:46:28;1004.2;;;20.4;48.3
45113;BME280;30873;53.908;27.576;2023-04-25T16:51:46;1004.2;;;20.1;51.1
45113;BME280;30873;53.908;27.576;2023-04-25T16:56:06;1004.2;;;19.9;52.4
45113;BME280;30873;53.908;27.576;2023-04-25T17:01:29;1004.2;;;19.9;52.4
45113;BME280;30873;53.908;27.576;2023-04-25T17:06:44;1004.2;;;20.1;52.4
45113;BME280;30873;53.908;27.576;2023-04-25T17:11:18;1004.2;;;20.2;52.6
45113;BME280;30873;53.908;27.576;2023-04-25T17:16:58;1004.2;;;20;51.9
45113;BME280;30873;53.908;27.576;2023-04-25T17:21:58;1004.4;;;19.8;52.3
45113;BME280;30873;53.908;27.576;2023-04-25T17:26:18;1004.6;;;19.4;55.1
45113;BME280;30873;53.908;27.576;2023-04-25T17:31:58;1004.7;;;19.1;57.9
45113;BME280;30873;53.908;27.576;2023-04-25T17:36:30;1004.6;;;19;60
45113;BME280;30873;53.908;27.576;2023-04-25T17:41:18;1004.7;;;18.9;63.2
45113;BME280;30873;53.908;27.576;2023-04-25T17:46:44;1004.7;;;18.8;63.2
45113;BME280;30873;53.908;27.576;2023-04-25T17:51:06;1004.7;;;18.8;61.1
45113;BME280;30873;53.908;27.576;2023-04-25T17:56:06;1004.8;;;18.8;59.4
45113;BME280;30873;53.908;27.576;2023-04-25T18:01:18;1004.7;;;18.6;59.8
45113;BME280;30873;53.908;27.576;2023-04-25T18:06:58;1004.7;;;18.6;60.9
45113;BME280;30873;53.908;27.576;2023-04-25T18:11:28;1004.8;;;18.5;61.7
45113;BME280;30873;53.908;27.576;2023-04-25T18:16:58;1004.9;;;18.4;63.2
45113;BME280;30873;53.908;27.576;2023-04-25T18:21:32;1004.9;;;18.4;65.2
45113;BME280;30873;53.908;27.576;2023-04-25T18:26:42;1004.8;;;18.4;65.9
45113;BME280;30873;53.908;27.576;2023-04-25T18:31:06;1004.9;;;18.4;67.2
45113;BME280;30873;53.908;27.576;2023-04-25T18:36:06;1005;;;18.4;68.5
45113;BME280;30873;53.908;27.576;2023-04-25T18:41:44;1005;;;18.3;68.9
45113;BME280;30873;53.908;27.576;2023-04-25T18:46:18;1005;;;18.3;70
45113;BME280;30873;53.908;27.576;2023-04-25T18:51:06;1005;;;18.3;71.1
45113;BME280;30873;53.908;27.576;2023-04-25T18:56:48;1004.9;;;18.3;71.9
45113;BME280;30873;53.908;27.576;2023-04-25T19:01:58;1004.8;;;18.2;73
45113;BME280;30873;53.908;27.576;2023-04-25T19:06:07;1004.8;;;18.2;73.5
45113;BME280;30873;53.908;27.576;2023-04-25T19:11:44;1004.8;;;18.2;75
45113;BME280;30873;53.908;27.576;2023-04-25T19:16:44;1004.8;;;18.1;77
45113;BME280;30873;53.908;27.576;2023-04-25T19:21:18;1004.7;;;18;78.9
45113;BME280;30873;53.908;27.576;2023-04-25T19:26:44;1004.7;;;17.9;80.5
45113;BME280;30873;53.908;27.576;2023-04-25T19:31:40;1004.7;;;17.8;81.1
45113;BME280;30873;53.908;27.576;2023-04-25T19:36:58;1004.7;;;17.7;81.4
45113;BME280;30873;53.908;27.576;2023-04-25T19:41:56;1004.6;;;17.7;82.3
45113;BME280;30873;53.908;27.576;2023-04-25T19:46:06;1004.6;;;17.7;83.4
45113;BME280;30873;53.908;27.576;2023-04-25T19:51:58;1004.6;;;17.5;85.2
45113;BME280;30873;53.908;27.576;2023-04-25T19:56:46;1004.6;;;17.4;87.3
45113;BME280;30873;53.908;27.576;2023-04-25T20:01:06;1004.6;;;17.2;89.1
45113;BME280;30873;53.908;27.576;2023-04-25T20:06:42;1004.6;;;17.2;88.5
45113;BME280;30873;53.908;27.576;2023-04-25T20:11:44;1004.6;;;17.3;88.3
45113;BME280;30873;53.908;27.576;2023-04-25T20:16:16;1004.6;;;17.2;89.5
45113;BME280;30873;53.908;27.576;2023-04-25T20:21:40;1004.6;;;17.2;90.6
45113;BME280;30873;53.908;27.576;2023-04-25T20:26:56;1004.6;;;17.1;91.9
45113;BME280;30873;53.908;27.576;2023-04-25T20:31:18;1004.6;;;17.1;92.7
45113;BME280;30873;53.908;27.576;2023-04-25T20:36:56;1004.6;;;17;93.6
45113;BME280;30873;53.908;27.576;2023-04-25T20:41:06;1004.6;;;17;93.9
45113;BME280;30873;53.908;27.576;2023-04-25T20:46:06;1004.6;;;16.8;94.9
45113;BME280;30873;53.908;27.576;2023-04-25T20:51:44;1004.5;;;16.7;96
45113;BME280;30873;53.908;27.576;2023-04-25T20:56:30;1004.5;;;16.6;98.1
45113;BME280;30873;53.908;27.576;2023-04-25T21:01:16;1004.5;;;16.5;99.2
45113;BME280;30873;53.908;27.576;2023-04-25T21:06:44;1004.5;;;16.4;99.9
45113;BME280;30873;53.908;27.576;2023-04-25T21:11:58;1004.5;;;16.4;100
45113;BME280;30873;53.908;27.576;2023-04-25T21:16:28;1004.4;;;16.3;100
45113;BME280;30873;53.908;27.576;2023-04-25T21:21:20;1004.5;;;16.2;100
45113;BME280;30873;53.908;27.576;2023-04-25T21:26:58;1004.6;;;16;100
45113;BME280;30873;53.908;27.576;2023-04-25T21:31:58;1004.6;;;15.9;100
45113;BME280;30873;53.908;27.576;2023-04-25T21:36:32;1004.6;;;15.9;100
45113;BME280;30873;53.908;27.576;2023-04-25T21:41:06;1004.6;;;15.8;100
45113;BME280;30873;53.908;27.576;2023-04-25T21:46:58;1004.5;;;15.9;100
45113;BME280;30873;53.908;27.576;2023-04-25T21:51:46;1004.6;;;15.7;100
45113;BME280;30873;53.908;27.576;2023-04-25T21:56:18;1004.6;;;15.4;100
45113;BME280;30873;53.908;27.576;2023-04-25T22:01:42;1004.6;;;15.5;100
45113;BME280;30873;53.908;27.576;2023-04-25T22:06:56;1004.5;;;15.6;100
45113;BME280;30873;53.908;27.576;2023-04-25T22:11:45;1004.6;;;15.5;100
45113;BME280;30873;53.908;27.576;2023-04-25T22:16:44;1004.6;;;15.4;100
45113;BME280;30873;53.908;27.576;2023-04-25T22:21:58;1004.6;;;15.3;100
45113;BME280;30873;53.908;27.576;2023-04-25T22:26:06;1004.5;;;15.3;100
45113;BME280;30873;53.908;27.576;2023-04-25T22:31:06;1004.5;;;15.3;100
45113;BME280;30873;53.908;27.576;2023-04-25T22:36:42;1004.4;;;15.1;100
45113;BME280;30873;53.908;27.576;2023-04-25T22:41:18;1004.4;;;15.1;100
45113;BME280;30873;53.908;27.576;2023-04-25T22:46:46;1004.5;;;15.1;100
45113;BME280;30873;53.908;27.576;2023-04-25T22:51:18;1004.5;;;15.1;100
45113;BME280;30873;53.908;27.576;2023-04-25T22:56:58;1004.4;;;15.1;100
45113;BME280;30873;53.908;27.576;2023-04-25T23:01:32;1004.4;;;15;100
45113;BME280;30873;53.908;27.576;2023-04-25T23:06:42;1004.3;;;15;100
45113;BME280;30873;53.908;27.576;2023-04-25T23:11:16;1004.4;;;14.8;100
45113;BME280;30873;53.908;27.576;2023-04-25T23:16:18;1004.4;;;14.7;100
45113;BME280;30873;53.908;27.576;2023-04-25T23:21:54;1004.4;;;14.8;100
45113;BME280;30873;53.908;27.576;2023-04-25T23:26:42;1004.4;;;14.7;100
45113;BME280;30873;53.908;27.576;2023-04-25T23:31:06;1004.4;;;14.7;100
45113;BME280;30873;53.908;27.576;2023-04-25T23:36:18;1004.3;;;14.9;100
45113;BME280;30873;53.908;27.576;2023-04-25T23:41:40;1004.3;;;15;100
45113;BME280;30873;53.908;27.576;2023-04-25T23:46:28;1004.2;;;15.2;100
45113;BME280;30873;53.908;27.576;2023-04-25T23:51:18;1004.2;;;15.1;100
45113;BME280;30873;53.908;27.576;2023-04-25T23:56:44;1004.3;;;15.1;100
